createdAt,value
2018-07-26T00:00:09.985Z,11.07
2018-07-26T00:02:38.455Z,11.07
2018-07-26T00:05:06.981Z,9.63
2018-07-26T00:07:35.723Z,10.00
2018-07-26T00:10:05.135Z,9.90
2018-07-26T00:12:33.530Z,10.17
2018-07-26T00:15:02.102Z,10.20
2018-07-26T00:17:30.492Z,10.33
2018-07-26T00:19:58.893Z,10.10
2018-07-26T00:22:27.415Z,10.23
2018-07-26T00:24:55.857Z,10.50
2018-07-26T00:27:24.232Z,10.40
2018-07-26T00:29:52.657Z,11.90
2018-07-26T00:32:21.080Z,12.53
2018-07-26T00:34:49.468Z,13.07
2018-07-26T00:37:18.080Z,11.90
2018-07-26T00:39:46.631Z,12.20
2018-07-26T00:42:15.287Z,12.33
2018-07-26T00:44:43.721Z,13.20
2018-07-26T00:47:12.250Z,12.73
2018-07-26T00:49:40.850Z,12.90
2018-07-26T00:52:09.294Z,12.20
2018-07-26T00:54:37.693Z,11.97
2018-07-26T00:57:06.297Z,12.23
2018-07-26T00:59:34.688Z,13.20
2018-07-26T01:02:03.099Z,14.00
2018-07-26T01:04:31.764Z,16.20
2018-07-26T01:07:00.168Z,14.60
2018-07-26T01:09:28.677Z,15.83
2018-07-26T01:11:57.309Z,16.80
2018-07-26T01:14:25.705Z,15.67
2018-07-26T01:16:54.208Z,14.20
2018-07-26T01:19:22.608Z,13.33
2018-07-26T01:21:50.996Z,15.10
2018-07-26T01:24:19.432Z,15.00
2018-07-26T01:26:47.836Z,15.20
2018-07-26T01:29:18.806Z,13.93
2018-07-26T01:31:47.700Z,14.83
2018-07-26T01:34:16.085Z,13.80
2018-07-26T01:36:44.524Z,12.37
2018-07-26T01:39:12.916Z,13.17
2018-07-26T01:41:41.369Z,12.30
2018-07-26T01:44:17.900Z,13.00
2018-07-26T01:46:46.602Z,11.70
2018-07-26T01:49:14.992Z,13.00
2018-07-26T01:51:43.517Z,13.40
2018-07-26T01:54:11.944Z,15.00
2018-07-26T01:56:40.347Z,15.00
2018-07-26T01:59:08.843Z,14.77
2018-07-26T02:01:37.474Z,14.87
2018-07-26T02:04:05.896Z,15.50
2018-07-26T02:06:34.471Z,15.87
2018-07-26T02:09:03.313Z,14.90
2018-07-26T02:11:31.733Z,16.00
2018-07-26T02:14:00.104Z,15.47
2018-07-26T02:16:28.537Z,15.50
2018-07-26T02:18:56.961Z,16.97
2018-07-26T02:21:25.385Z,15.23
2018-07-26T02:23:53.765Z,14.80
2018-07-26T02:26:22.374Z,14.67
2018-07-26T02:28:50.782Z,16.37
2018-07-26T02:31:19.429Z,16.57
2018-07-26T02:33:48.128Z,16.60
2018-07-26T02:36:16.541Z,16.90
2018-07-26T02:38:44.993Z,15.67
2018-07-26T02:41:13.429Z,15.60
2018-07-26T02:43:41.837Z,16.33
2018-07-26T02:46:10.525Z,16.10
2018-07-26T02:48:38.912Z,16.40
2018-07-26T02:51:07.330Z,17.03
2018-07-26T02:53:36.006Z,17.00
2018-07-26T02:56:04.417Z,16.93
2018-07-26T02:58:32.871Z,17.37
2018-07-26T03:01:01.706Z,18.10
2018-07-26T03:03:30.130Z,18.10
2018-07-26T03:05:58.525Z,17.47
2018-07-26T03:08:26.977Z,17.10
2018-07-26T03:10:55.381Z,16.53
2018-07-26T03:13:23.808Z,16.10
2018-07-26T03:15:52.213Z,16.33
2018-07-26T03:18:20.739Z,16.40
2018-07-26T03:20:49.582Z,16.13
2018-07-26T03:23:17.954Z,15.83
2018-07-26T03:25:46.069Z,16.17
2018-07-26T03:28:14.506Z,17.50
2018-07-26T03:30:43.125Z,17.77
2018-07-26T03:33:11.739Z,16.90
2018-07-26T03:35:40.150Z,16.13
2018-07-26T03:38:08.574Z,16.27
2018-07-26T03:40:36.984Z,17.00
2018-07-26T03:43:05.377Z,16.60
2018-07-26T03:45:33.908Z,17.90
2018-07-26T03:48:02.635Z,15.87
2018-07-26T03:50:31.032Z,16.60
2018-07-26T03:52:59.450Z,17.17
2018-07-26T03:55:27.856Z,16.13
2018-07-26T03:57:56.757Z,15.10
2018-07-26T04:00:25.088Z,16.60
2018-07-26T04:02:53.534Z,18.30
2018-07-26T04:05:21.925Z,17.70
2018-07-26T04:07:50.358Z,19.90
2018-07-26T04:10:19.153Z,18.47
2018-07-26T04:12:47.536Z,18.47
2018-07-26T04:15:15.980Z,18.20
2018-07-26T04:17:44.801Z,18.40
2018-07-26T04:20:13.196Z,18.70
2018-07-26T04:22:41.780Z,19.43
2018-07-26T04:25:10.204Z,18.73
2018-07-26T04:27:38.720Z,18.70
2018-07-26T04:30:07.145Z,19.50
2018-07-26T04:32:35.560Z,19.37
2018-07-26T04:35:04.036Z,18.70
2018-07-26T04:37:32.449Z,20.50
2018-07-26T04:40:00.916Z,20.10
2018-07-26T04:42:29.477Z,19.97
2018-07-26T04:44:57.975Z,18.47
2018-07-26T04:47:26.384Z,18.07
2018-07-26T04:49:54.792Z,17.77
2018-07-26T04:52:23.273Z,19.90
2018-07-26T04:54:51.696Z,19.23
2018-07-26T04:57:20.084Z,18.90
2018-07-26T04:59:48.168Z,18.80
2018-07-26T05:02:16.321Z,17.93
2018-07-26T05:04:44.728Z,19.30
2018-07-26T05:07:13.116Z,18.13
2018-07-26T05:09:41.703Z,20.00
2018-07-26T05:12:10.180Z,17.90
2018-07-26T05:14:38.588Z,19.13
2018-07-26T05:17:07.336Z,18.63
2018-07-26T05:19:35.722Z,19.07
2018-07-26T05:22:04.209Z,17.00
2018-07-26T05:24:32.757Z,17.93
2018-07-26T05:27:01.185Z,16.70
2018-07-26T05:29:29.677Z,17.40
2018-07-26T05:31:58.148Z,16.83
2018-07-26T05:34:26.534Z,16.40
2018-07-26T05:36:54.920Z,16.80
2018-07-26T05:39:23.358Z,15.47
2018-07-26T05:41:51.768Z,16.17
2018-07-26T05:44:20.669Z,16.13
2018-07-26T05:46:49.056Z,18.33
2018-07-26T05:49:17.464Z,18.77
2018-07-26T05:51:45.860Z,18.83
2018-07-26T05:54:14.273Z,19.30
2018-07-26T05:56:42.766Z,19.70
2018-07-26T06:01:49.466Z,19.30
2018-07-26T06:04:17.881Z,19.13
2018-07-26T06:06:46.305Z,20.90
2018-07-26T06:09:14.712Z,18.80
2018-07-26T06:11:43.116Z,19.60
2018-07-26T06:14:11.599Z,19.63
2018-07-26T06:16:40.244Z,19.77
2018-07-26T06:19:08.649Z,18.60
2018-07-26T06:21:37.053Z,16.97
2018-07-26T06:24:05.817Z,16.50
2018-07-26T06:26:34.246Z,17.90
2018-07-26T06:29:02.683Z,18.23
2018-07-26T06:31:31.081Z,18.10
2018-07-26T06:33:59.491Z,18.37
2018-07-26T06:36:27.931Z,19.23
2018-07-26T06:38:56.391Z,18.77
2018-07-26T06:41:24.781Z,18.57
2018-07-26T06:43:53.222Z,18.40
2018-07-26T06:46:21.809Z,17.83
2018-07-26T06:48:50.260Z,18.00
2018-07-26T06:51:19.041Z,17.53
2018-07-26T06:53:47.608Z,15.23
2018-07-26T06:56:16.009Z,15.53
2018-07-26T06:58:44.409Z,13.97
2018-07-26T07:01:12.824Z,13.43
2018-07-26T07:03:41.244Z,14.40
2018-07-26T07:06:09.641Z,14.07
2018-07-26T07:08:38.264Z,14.60
2018-07-26T07:11:06.672Z,12.90
2018-07-26T07:13:35.127Z,14.17
2018-07-26T07:16:03.605Z,13.60
2018-07-26T07:18:31.991Z,14.30
2018-07-26T07:21:00.381Z,14.20
2018-07-26T07:23:28.808Z,15.03
2018-07-26T07:25:57.219Z,16.10
2018-07-26T07:28:25.652Z,16.80
2018-07-26T07:30:54.307Z,16.73
2018-07-26T07:33:22.720Z,16.30
2018-07-26T07:35:51.140Z,16.53
2018-07-26T07:38:19.558Z,16.50
2018-07-26T07:40:47.955Z,15.17
2018-07-26T07:43:16.388Z,15.43
2018-07-26T07:45:44.873Z,14.33
2018-07-26T07:48:13.260Z,13.83
2018-07-26T07:50:41.653Z,13.40
2018-07-26T07:53:10.141Z,11.00
2018-07-26T07:55:38.581Z,12.97
2018-07-26T07:58:06.998Z,10.27
2018-07-26T08:00:35.450Z,9.43
2018-07-26T08:03:03.918Z,8.70
2018-07-26T08:05:32.328Z,9.17
2018-07-26T08:08:00.752Z,9.57
2018-07-26T08:10:29.177Z,9.20
2018-07-26T08:12:57.587Z,9.17
2018-07-26T08:15:26.021Z,9.97
2018-07-26T08:17:54.433Z,9.33
2018-07-26T08:20:23.022Z,9.00
2018-07-26T08:22:51.532Z,8.23
2018-07-26T08:25:19.976Z,7.70
2018-07-26T08:27:48.595Z,9.97
2018-07-26T08:30:16.692Z,9.40
2018-07-26T08:32:45.144Z,8.03
2018-07-26T08:35:13.325Z,7.90
2018-07-26T08:37:41.711Z,7.27
2018-07-26T08:40:10.154Z,6.37
2018-07-26T08:42:38.612Z,6.60
2018-07-26T08:45:07.203Z,6.67
2018-07-26T08:47:35.607Z,6.30
2018-07-26T08:50:04.781Z,6.30
2018-07-26T08:52:33.464Z,5.20
2018-07-26T08:55:02.119Z,5.73
2018-07-26T08:57:30.675Z,5.47
2018-07-26T08:59:59.084Z,5.13
2018-07-26T09:02:27.576Z,5.43
2018-07-26T09:04:56.059Z,5.50
2018-07-26T09:07:24.501Z,4.80
2018-07-26T09:09:52.920Z,5.53
2018-07-26T09:12:21.345Z,4.93
2018-07-26T09:14:49.723Z,5.47
2018-07-26T09:17:18.151Z,4.17
2018-07-26T09:19:46.584Z,4.03
2018-07-26T09:22:15.082Z,5.20
2018-07-26T09:24:43.476Z,4.70
2018-07-26T09:27:13.097Z,5.33
2018-07-26T09:29:41.588Z,4.57
2018-07-26T09:32:10.256Z,4.67
2018-07-26T09:34:38.667Z,4.57
2018-07-26T09:37:07.133Z,4.17
2018-07-26T09:39:35.735Z,4.10
2018-07-26T09:42:04.257Z,4.00
2018-07-26T09:44:32.674Z,4.17
2018-07-26T09:47:01.108Z,3.70
2018-07-26T09:49:29.709Z,3.90
2018-07-26T09:51:58.117Z,4.10
2018-07-26T09:54:26.695Z,4.10
2018-07-26T09:56:55.147Z,4.20
2018-07-26T09:59:23.512Z,3.83
2018-07-26T10:01:52.133Z,3.70
2018-07-26T10:04:20.620Z,4.20
2018-07-26T10:06:49.066Z,3.70
2018-07-26T10:09:17.691Z,4.27
2018-07-26T10:11:46.127Z,4.13
2018-07-26T10:14:14.476Z,4.37
2018-07-26T10:16:43.199Z,4.50
2018-07-26T10:19:11.583Z,4.23
2018-07-26T10:21:40.011Z,4.40
2018-07-26T10:24:08.673Z,4.00
2018-07-26T10:26:37.056Z,4.20
2018-07-26T10:29:05.520Z,4.80
2018-07-26T10:31:34.216Z,3.80
2018-07-26T10:34:02.637Z,4.30
2018-07-26T10:36:31.024Z,4.20
2018-07-26T10:38:59.674Z,4.03
2018-07-26T10:41:28.192Z,4.00
2018-07-26T10:43:56.590Z,4.40
2018-07-26T10:46:25.312Z,3.90
2018-07-26T10:48:53.384Z,4.07
2018-07-26T10:51:21.904Z,3.90
2018-07-26T10:53:50.292Z,3.83
2018-07-26T10:56:18.712Z,3.43
2018-07-26T10:58:47.393Z,3.77
2018-07-26T11:01:15.839Z,3.50
2018-07-26T11:03:44.267Z,3.30
2018-07-26T11:06:12.623Z,4.10
2018-07-26T11:08:41.053Z,3.20
2018-07-26T11:11:09.477Z,3.63
2018-07-26T11:13:37.853Z,3.37
2018-07-26T11:16:06.299Z,3.20
2018-07-26T11:18:34.680Z,3.50
2018-07-26T11:21:03.072Z,3.47
2018-07-26T11:23:31.530Z,3.40
2018-07-26T11:25:59.977Z,3.50
2018-07-26T11:28:28.452Z,3.37
2018-07-26T11:30:56.892Z,3.07
2018-07-26T11:33:25.276Z,3.53
2018-07-26T11:35:53.749Z,3.00
2018-07-26T11:38:22.100Z,3.50
2018-07-26T11:40:50.520Z,3.40
2018-07-26T11:43:18.961Z,3.67
2018-07-26T11:45:47.419Z,3.50
2018-07-26T11:48:15.823Z,3.37
2018-07-26T11:50:44.201Z,3.17
2018-07-26T11:53:12.606Z,3.13
2018-07-26T11:55:41.025Z,3.57
2018-07-26T11:58:09.468Z,3.73
2018-07-26T12:00:37.816Z,3.97
2018-07-26T12:03:06.447Z,3.17
2018-07-26T12:05:34.820Z,3.57
2018-07-26T12:08:03.286Z,3.30
2018-07-26T12:10:31.713Z,3.20
2018-07-26T12:13:00.078Z,3.73
2018-07-26T12:15:28.475Z,3.30
2018-07-26T12:17:56.982Z,3.50
2018-07-26T12:20:25.366Z,3.53
2018-07-26T12:22:54.107Z,3.23
2018-07-26T12:25:22.513Z,2.93
2018-07-26T12:27:50.897Z,3.67
2018-07-26T12:30:19.524Z,2.93
2018-07-26T12:32:47.925Z,3.37
2018-07-26T12:35:16.337Z,3.50
2018-07-26T12:37:44.740Z,3.17
2018-07-26T12:40:13.137Z,3.40
2018-07-26T12:42:41.522Z,3.50
2018-07-26T12:45:09.947Z,3.20
2018-07-26T12:47:38.496Z,2.90
2018-07-26T12:50:06.772Z,3.60
2018-07-26T12:52:35.192Z,4.07
2018-07-26T12:55:03.660Z,3.47
2018-07-26T12:57:32.141Z,3.60
2018-07-26T13:00:00.548Z,3.20
2018-07-26T13:02:29.133Z,2.90
2018-07-26T13:04:58.072Z,3.17
2018-07-26T13:07:26.480Z,3.53
2018-07-26T13:09:55.109Z,3.40
2018-07-26T13:12:23.562Z,3.23
2018-07-26T13:14:51.984Z,3.27
2018-07-26T13:17:20.398Z,3.20
2018-07-26T13:19:48.789Z,3.50
2018-07-26T13:22:17.204Z,3.53
2018-07-26T13:24:45.612Z,2.83
2018-07-26T13:27:14.004Z,3.63
2018-07-26T13:29:42.433Z,3.20
2018-07-26T13:32:10.849Z,3.10
2018-07-26T13:34:39.316Z,3.10
2018-07-26T13:37:07.740Z,3.37
2018-07-26T13:39:36.132Z,2.83
2018-07-26T13:42:04.706Z,3.30
2018-07-26T13:44:33.199Z,3.23
2018-07-26T13:47:01.610Z,3.00
2018-07-26T13:49:30.045Z,2.83
2018-07-26T13:51:58.456Z,2.93
2018-07-26T13:54:27.036Z,2.73
2018-07-26T13:56:55.436Z,3.00
2018-07-26T13:59:23.826Z,2.93
2018-07-26T14:01:52.264Z,3.03
2018-07-26T14:04:20.650Z,2.97
2018-07-26T14:06:49.048Z,2.83
2018-07-26T14:09:17.536Z,3.30
2018-07-26T14:11:45.949Z,2.63
2018-07-26T14:14:14.359Z,2.90
2018-07-26T14:16:42.767Z,2.90
2018-07-26T14:19:11.191Z,3.43
2018-07-26T14:21:39.584Z,3.47
2018-07-26T14:24:13.392Z,3.70
2018-07-26T14:26:41.816Z,3.20
2018-07-26T14:29:10.216Z,3.93
2018-07-26T14:31:38.847Z,3.47
2018-07-26T14:34:07.244Z,3.83
2018-07-26T14:36:35.650Z,3.30
2018-07-26T14:39:06.393Z,3.90
2018-07-26T14:41:34.801Z,3.47
2018-07-26T14:44:03.213Z,3.60
2018-07-26T14:46:31.617Z,3.90
2018-07-26T14:49:00.120Z,3.97
2018-07-26T14:51:28.560Z,3.30
2018-07-26T14:53:56.958Z,3.40
2018-07-26T14:56:25.377Z,3.77
2018-07-26T14:58:53.906Z,3.10
2018-07-26T15:01:22.032Z,3.80
2018-07-26T15:03:50.432Z,3.80
2018-07-26T15:06:19.027Z,3.60
2018-07-26T15:08:48.131Z,3.43
2018-07-26T15:11:17.119Z,3.27
2018-07-26T15:13:45.736Z,3.70
2018-07-26T15:16:14.150Z,3.83
2018-07-26T15:18:42.904Z,3.53
2018-07-26T15:21:11.709Z,3.00
2018-07-26T15:23:40.161Z,2.80
2018-07-26T15:26:08.618Z,2.73
2018-07-26T15:28:36.956Z,2.70
2018-07-26T15:31:05.620Z,2.40
2018-07-26T15:33:34.043Z,2.40
2018-07-26T15:36:02.525Z,3.10
2018-07-26T15:38:30.908Z,2.57
2018-07-26T15:40:59.337Z,2.60
2018-07-26T15:43:28.457Z,2.70
2018-07-26T15:45:57.036Z,2.67
2018-07-26T15:48:25.420Z,2.50
2018-07-26T15:50:54.581Z,2.80
2018-07-26T15:53:22.976Z,2.50
2018-07-26T15:55:51.404Z,2.47
2018-07-26T15:58:19.807Z,2.83
2018-07-26T16:00:48.209Z,2.70
2018-07-26T16:03:16.668Z,3.23
2018-07-26T16:05:45.125Z,2.87
2018-07-26T16:08:13.583Z,3.10
2018-07-26T16:10:42.032Z,2.83
2018-07-26T16:13:10.436Z,3.00
2018-07-26T16:15:38.580Z,3.40
2018-07-26T16:18:07.072Z,3.20
2018-07-26T16:20:35.466Z,3.20
2018-07-26T16:23:03.900Z,3.17
2018-07-26T16:25:32.441Z,3.23
2018-07-26T16:28:00.511Z,3.13
2018-07-26T16:30:29.051Z,3.40
2018-07-26T16:32:57.494Z,2.90
2018-07-26T16:35:25.921Z,2.97
2018-07-26T16:37:55.321Z,3.37
2018-07-26T16:40:23.868Z,3.10
2018-07-26T16:42:52.344Z,3.57
2018-07-26T16:45:20.764Z,3.33
2018-07-26T16:47:49.198Z,3.33
2018-07-26T16:50:17.696Z,3.27
2018-07-26T16:52:46.194Z,3.17
2018-07-26T16:55:14.592Z,3.43
2018-07-26T16:57:43.062Z,3.00
2018-07-26T17:00:11.738Z,3.07
2018-07-26T17:02:40.248Z,3.33
2018-07-26T17:05:09.085Z,3.50
2018-07-26T17:07:38.028Z,3.77
2018-07-26T17:10:06.384Z,3.50
2018-07-26T17:12:35.005Z,3.10
2018-07-26T17:15:03.433Z,3.50
2018-07-26T17:17:31.872Z,3.60
2018-07-26T17:20:00.327Z,3.87
2018-07-26T17:22:28.716Z,3.70
2018-07-26T17:24:57.174Z,4.20
2018-07-26T17:27:25.645Z,3.77
2018-07-26T17:29:55.951Z,4.20
2018-07-26T17:32:24.494Z,4.20
2018-07-26T17:34:52.977Z,4.50
2018-07-26T17:37:21.414Z,4.57
2018-07-26T17:39:49.877Z,3.87
2018-07-26T17:42:18.342Z,4.07
2018-07-26T17:44:46.819Z,3.60
2018-07-26T17:47:15.290Z,3.70
2018-07-26T17:49:43.715Z,3.60
2018-07-26T17:52:12.228Z,4.03
2018-07-26T17:54:40.729Z,4.30
2018-07-26T17:57:09.126Z,2.90
2018-07-26T17:59:37.540Z,3.70
2018-07-26T18:02:05.695Z,3.50
2018-07-26T18:04:34.174Z,3.80
2018-07-26T18:07:02.622Z,3.90
2018-07-26T18:09:31.084Z,3.40
2018-07-26T18:11:59.510Z,3.60
2018-07-26T18:14:27.940Z,3.80
2018-07-26T18:16:56.770Z,3.83
2018-07-26T18:19:25.193Z,3.80
2018-07-26T18:21:53.608Z,3.90
2018-07-26T18:24:22.300Z,4.00
2018-07-26T18:26:50.824Z,4.00
2018-07-26T18:29:19.397Z,3.40
2018-07-26T18:31:47.558Z,3.80
2018-07-26T18:34:16.155Z,3.73
2018-07-26T18:36:44.763Z,3.67
2018-07-26T18:39:13.886Z,4.00
2018-07-26T18:41:42.498Z,3.83
2018-07-26T18:44:11.076Z,3.77
2018-07-26T18:46:39.580Z,4.03
2018-07-26T18:49:09.215Z,3.43
2018-07-26T18:51:37.312Z,4.00
2018-07-26T18:54:06.120Z,3.87
2018-07-26T18:56:34.688Z,3.77
2018-07-26T18:59:03.265Z,3.93
2018-07-26T19:01:31.764Z,3.47
2018-07-26T19:04:00.255Z,4.43
2018-07-26T19:06:28.718Z,4.07
2018-07-26T19:08:57.413Z,3.90
2018-07-26T19:11:25.831Z,3.90
2018-07-26T19:13:54.350Z,4.30
2018-07-26T19:16:22.871Z,3.90
2018-07-26T19:18:51.276Z,4.20
2018-07-26T19:21:19.751Z,4.03
2018-07-26T19:23:48.469Z,4.10
2018-07-26T19:26:17.059Z,4.20
2018-07-26T19:28:45.478Z,4.60
2018-07-26T19:31:14.241Z,4.27
2018-07-26T19:33:42.725Z,5.20
2018-07-26T19:36:11.194Z,6.30
2018-07-26T19:38:39.601Z,5.13
2018-07-26T19:41:08.105Z,4.60
2018-07-26T19:43:36.297Z,4.80
2018-07-26T19:46:04.431Z,4.70
2018-07-26T19:48:32.841Z,4.40
2018-07-26T19:51:01.501Z,4.70
2018-07-26T19:53:29.962Z,5.10
2018-07-26T19:55:58.385Z,5.00
2018-07-26T19:58:26.828Z,5.13
2018-07-26T20:00:55.318Z,5.10
2018-07-26T20:03:23.907Z,4.50
2018-07-26T20:05:52.364Z,4.47
2018-07-26T20:08:20.905Z,4.70
2018-07-26T20:10:49.384Z,5.07
2018-07-26T20:13:17.873Z,5.00
2018-07-26T20:15:46.368Z,4.27
2018-07-26T20:18:14.853Z,4.87
2018-07-26T20:20:43.254Z,5.20
2018-07-26T20:23:11.802Z,5.40
2018-07-26T20:25:45.052Z,5.23
2018-07-26T20:28:13.677Z,4.97
2018-07-26T20:30:42.204Z,4.97
2018-07-26T20:33:11.380Z,4.93
2018-07-26T20:35:39.808Z,5.20
2018-07-26T20:38:09.282Z,4.80
2018-07-26T20:40:37.712Z,4.53
2018-07-26T20:43:06.536Z,5.17
2018-07-26T20:45:35.340Z,4.70
2018-07-26T20:48:03.795Z,4.60
2018-07-26T20:50:32.316Z,4.80
2018-07-26T20:53:00.752Z,5.00
2018-07-26T20:55:29.265Z,4.83
2018-07-26T20:57:57.719Z,4.77
2018-07-26T21:00:26.147Z,5.03
2018-07-26T21:02:54.656Z,4.80
2018-07-26T21:05:23.162Z,5.00
2018-07-26T21:07:51.532Z,5.20
2018-07-26T21:10:20.061Z,5.07
2018-07-26T21:12:48.516Z,5.37
2018-07-26T21:15:16.933Z,4.90
2018-07-26T21:17:45.455Z,4.90
2018-07-26T21:20:13.939Z,5.60
2018-07-26T21:22:42.363Z,6.07
2018-07-26T21:25:10.785Z,5.10
2018-07-26T21:27:39.496Z,5.40
2018-07-26T21:30:08.164Z,5.60
2018-07-26T21:32:36.860Z,5.73
2018-07-26T21:35:06.418Z,4.70
2018-07-26T21:37:34.802Z,4.43
2018-07-26T21:40:03.273Z,4.63
2018-07-26T21:42:31.795Z,4.57
2018-07-26T21:45:00.213Z,4.77
2018-07-26T21:47:28.706Z,4.33
2018-07-26T21:49:57.108Z,4.70
2018-07-26T21:52:25.540Z,5.43
2018-07-26T21:54:54.172Z,4.50
2018-07-26T21:57:22.764Z,4.20
2018-07-26T21:59:51.165Z,4.63
2018-07-26T22:02:19.649Z,4.80
2018-07-26T22:04:48.071Z,5.30
2018-07-26T22:07:16.473Z,5.20
2018-07-26T22:09:44.872Z,5.70
2018-07-26T22:12:13.293Z,4.90
2018-07-26T22:14:41.442Z,6.10
2018-07-26T22:17:09.849Z,5.50
2018-07-26T22:19:38.308Z,5.20
2018-07-26T22:22:07.010Z,5.23
2018-07-26T22:24:35.365Z,5.10
2018-07-26T22:27:03.764Z,5.23
2018-07-26T22:29:32.165Z,4.90
2018-07-26T22:32:00.677Z,5.30
2018-07-26T22:34:29.297Z,5.43
2018-07-26T22:36:57.702Z,5.37
2018-07-26T22:39:26.481Z,6.20
2018-07-26T22:41:54.856Z,5.33
2018-07-26T22:44:23.324Z,5.80
2018-07-26T22:46:51.460Z,5.30
2018-07-26T22:49:20.088Z,5.80
2018-07-26T22:51:48.512Z,5.87
2018-07-26T22:54:16.915Z,5.07
2018-07-26T22:56:45.323Z,5.23
2018-07-26T22:59:13.725Z,5.33
2018-07-26T23:01:42.339Z,5.57
2018-07-26T23:04:10.749Z,5.40
2018-07-26T23:06:39.136Z,4.30
2018-07-26T23:09:09.216Z,4.63
2018-07-26T23:11:37.632Z,4.50
2018-07-26T23:14:06.302Z,4.53
2018-07-26T23:16:34.712Z,4.10
2018-07-26T23:19:03.116Z,4.10
2018-07-26T23:21:31.617Z,3.97
2018-07-26T23:24:00.064Z,4.40
2018-07-26T23:26:28.461Z,3.60
2018-07-26T23:28:56.899Z,3.93
2018-07-26T23:31:25.323Z,4.03
2018-07-26T23:33:53.753Z,4.13
2018-07-26T23:36:22.182Z,3.20
2018-07-26T23:38:50.584Z,3.53
2018-07-26T23:41:19.021Z,4.00
2018-07-26T23:43:47.428Z,3.50
2018-07-26T23:46:16.001Z,3.70
2018-07-26T23:48:44.440Z,4.33
2018-07-26T23:51:12.849Z,4.37
2018-07-26T23:53:41.244Z,3.43
2018-07-26T23:56:09.620Z,3.53
2018-07-26T23:58:38.048Z,3.97
